Time;durP1;ratioP1;P1;durP2;ratioP2;P2;SDS_P1;SDS_P2;PMS_P1;PMS_P2;Temp;Humidity;BMP_temperature;BMP_pressure;BME280_temperature;BME280_humidity;BME280_pressure;Samples;Min_cycle;Max_cycle;Signal;HPM_P1;HPM_P2
2023/09/04 00:01:44;;;;;;;2.85;1.20;;;18.20;99.90;;;;;;5095223;28;20192;-88
2023/09/04 00:04:16;;;;;;;3.45;1.10;;;18.30;99.90;;;;;;5095265;28;20220;-89
2023/09/04 00:06:47;;;;;;;4.15;1.30;;;18.40;99.90;;;;;;5095362;28;20542;-90
2023/09/04 00:09:18;;;;;;;6.88;1.30;;;18.50;99.90;;;;;;5095323;28;20203;-90
2023/09/04 00:11:49;;;;;;;3.75;0.90;;;18.50;99.90;;;;;;5095539;28;20214;-87
2023/09/04 00:14:19;;;;;;;3.58;0.70;;;18.60;99.90;;;;;;5095434;28;20195;-89
2023/09/04 00:16:50;;;;;;;3.67;0.80;;;18.70;99.90;;;;;;5095640;28;20210;-89
2023/09/04 00:19:23;;;;;;;2.70;0.60;;;18.60;99.90;;;;;;5095088;28;20188;-89
2023/09/04 00:21:54;;;;;;;2.83;0.70;;;18.60;99.90;;;;;;5094925;28;20192;-83
2023/09/04 00:24:24;;;;;;;2.15;0.70;;;18.70;99.90;;;;;;5094762;28;20212;-88
2023/09/04 00:26:55;;;;;;;3.40;0.65;;;18.90;99.90;;;;;;5094871;28;20596;-88
2023/09/04 00:29:26;;;;;;;4.03;0.75;;;19.00;99.90;;;;;;5089154;28;20203;-87
2023/09/04 00:31:57;;;;;;;3.00;0.70;;;19.10;99.90;;;;;;5093975;28;20195;-89
2023/09/04 00:34:29;;;;;;;1.70;0.57;;;19.20;99.90;;;;;;5094667;28;20681;-87
2023/09/04 00:37:00;;;;;;;2.58;0.88;;;19.00;99.90;;;;;;5093569;28;20652;-89
2023/09/04 00:39:31;;;;;;;2.90;0.70;;;19.10;99.90;;;;;;5074779;28;20224;-86
2023/09/04 00:42:02;;;;;;;4.40;1.20;;;19.20;99.90;;;;;;5074542;28;20200;-88
2023/09/04 00:44:32;;;;;;;2.97;0.80;;;19.20;99.90;;;;;;5089111;28;20220;-91
2023/09/04 00:47:03;;;;;;;1.75;0.60;;;19.50;99.90;;;;;;5094525;28;20189;-88
2023/09/04 00:49:36;;;;;;;4.13;0.80;;;19.70;99.90;;;;;;5094448;28;20643;-88
2023/09/04 00:52:07;;;;;;;2.13;0.80;;;19.90;99.90;;;;;;5094292;28;20327;-86
2023/09/04 00:54:39;;;;;;;4.55;1.08;;;20.00;99.90;;;;;;5094164;28;20188;-90
2023/09/04 00:57:13;;;;;;;3.03;0.88;;;20.20;99.90;;;;;;5094636;28;20192;-90
2023/09/04 00:59:45;;;;;;;3.75;0.85;;;20.20;99.90;;;;;;5094257;28;20192;-89
2023/09/04 01:02:17;;;;;;;3.53;0.60;;;20.30;99.90;;;;;;5093039;28;20196;-87
2023/09/04 01:04:49;;;;;;;3.53;0.70;;;20.40;99.90;;;;;;5093793;28;20226;-91
2023/09/04 01:07:19;;;;;;;1.83;0.75;;;20.60;99.90;;;;;;5093822;28;20192;-88
2023/09/04 01:09:49;;;;;;;6.25;1.00;;;20.60;99.90;;;;;;5094598;28;20607;-91
2023/09/04 01:12:26;;;;;;;2.67;0.77;;;20.50;99.90;;;;;;5094107;28;20272;-91
2023/09/04 01:14:59;;;;;;;4.07;0.70;;;20.60;99.90;;;;;;5098013;28;20274;-85
2023/09/04 01:17:30;;;;;;;3.95;0.70;;;20.80;99.90;;;;;;5094850;28;20656;-89
2023/09/04 01:20:15;;;;;;;4.32;0.98;;;20.80;99.90;;;;;;5095893;28;20200;-87
2023/09/04 01:22:47;;;;;;;2.70;0.88;;;20.80;99.90;;;;;;5073820;28;20668;-84
2023/09/04 01:25:18;;;;;;;4.03;0.80;;;21.00;99.90;;;;;;5075979;28;20317;-86
2023/09/04 01:27:56;;;;;;;4.50;0.90;;;21.00;99.90;;;;;;5082312;28;20192;-89
2023/09/04 01:30:41;;;;;;;5.72;0.93;;;21.00;99.90;;;;;;5090649;28;20200;-82
2023/09/04 01:33:17;;;;;;;2.15;0.80;;;21.00;99.90;;;;;;5082457;28;20393;-90
2023/09/04 01:35:50;;;;;;;4.65;0.90;;;21.00;99.90;;;;;;5097083;28;20204;-90
2023/09/04 01:38:23;;;;;;;5.90;0.88;;;21.30;99.90;;;;;;5104485;28;20218;-90
2023/09/04 01:40:54;;;;;;;6.22;1.00;;;21.30;99.90;;;;;;5098455;28;20193;-84
2023/09/04 01:43:25;;;;;;;3.22;0.90;;;21.10;99.90;;;;;;5081916;28;20212;-77
2023/09/04 01:45:56;;;;;;;5.40;0.70;;;20.90;99.90;;;;;;5092949;28;20636;-77
2023/09/04 01:48:27;;;;;;;1.40;0.60;;;20.50;99.90;;;;;;5093243;28;20198;-83
2023/09/04 01:50:58;;;;;;;4.55;1.00;;;20.30;99.90;;;;;;5085796;28;20700;-80
2023/09/04 01:53:30;;;;;;;4.78;0.80;;;20.40;99.90;;;;;;5096614;28;20224;-78
2023/09/04 01:56:01;;;;;;;5.15;1.00;;;20.60;99.90;;;;;;5095291;28;20275;-75
2023/09/04 01:58:32;;;;;;;5.50;0.90;;;20.80;99.90;;;;;;5094085;28;20211;-76
2023/09/04 02:01:03;;;;;;;3.28;0.80;;;21.10;99.90;;;;;;5094144;28;20551;-76
2023/09/04 02:03:34;;;;;;;4.72;0.90;;;21.20;99.90;;;;;;5093435;28;20231;-78
2023/09/04 02:06:05;;;;;;;3.97;0.90;;;20.90;99.90;;;;;;5093306;28;20234;-76
2023/09/04 02:08:38;;;;;;;2.80;1.00;;;21.00;99.90;;;;;;5093435;28;20208;-77
2023/09/04 02:11:11;;;;;;;4.90;0.82;;;21.10;99.90;;;;;;5092941;28;20192;-76
2023/09/04 02:13:45;;;;;;;8.95;1.02;;;21.30;99.90;;;;;;5094356;28;20717;-87
2023/09/04 02:16:16;;;;;;;3.22;0.90;;;21.40;99.90;;;;;;5093724;28;20192;-85
2023/09/04 02:18:47;;;;;;;4.22;0.90;;;21.30;99.90;;;;;;5094206;28;20190;-84
2023/09/04 02:21:17;;;;;;;6.78;0.85;;;21.20;99.90;;;;;;5092615;28;20188;-81
2023/09/04 02:23:50;;;;;;;3.80;0.90;;;21.30;99.90;;;;;;5093179;28;20302;-83
2023/09/04 02:26:21;;;;;;;4.22;1.17;;;21.20;99.90;;;;;;5094160;28;20192;-84
2023/09/04 02:28:52;;;;;;;3.90;0.90;;;21.20;99.90;;;;;;5096387;28;20191;-77
2023/09/04 02:31:23;;;;;;;5.70;1.13;;;21.00;99.90;;;;;;5096656;28;20196;-77
2023/09/04 02:33:56;;;;;;;5.30;1.02;;;21.10;99.90;;;;;;5089079;28;20197;-76
2023/09/04 02:36:27;;;;;;;4.82;1.02;;;21.10;99.90;;;;;;5091369;28;20187;-75
2023/09/04 02:39:00;;;;;;;3.95;1.00;;;21.20;99.90;;;;;;5095016;28;20222;-76
2023/09/04 02:41:31;;;;;;;5.03;1.00;;;21.30;99.90;;;;;;5095816;28;20195;-75
2023/09/04 02:44:01;;;;;;;3.05;1.08;;;21.20;99.90;;;;;;5094832;28;20265;-85
2023/09/04 02:46:32;;;;;;;5.10;1.27;;;21.10;99.90;;;;;;5093921;28;20184;-76
2023/09/04 02:49:03;;;;;;;5.30;1.20;;;20.90;99.90;;;;;;5094847;28;20272;-83
2023/09/04 02:51:34;;;;;;;4.75;0.90;;;21.00;99.90;;;;;;5095889;28;20285;-83
2023/09/04 02:54:07;;;;;;;5.82;1.20;;;21.10;99.90;;;;;;5095838;28;20197;-87
2023/09/04 02:56:37;;;;;;;3.47;1.05;;;21.20;99.90;;;;;;5096988;28;20185;-85
2023/09/04 02:59:11;;;;;;;4.03;1.20;;;21.20;99.90;;;;;;5095550;28;20188;-83
2023/09/04 03:01:42;;;;;;;2.97;1.00;;;21.00;99.90;;;;;;5096720;28;20184;-86
2023/09/04 03:04:13;;;;;;;4.95;1.25;;;20.80;99.90;;;;;;5095423;28;20271;-82
2023/09/04 03:06:44;;;;;;;6.25;1.20;;;20.50;99.90;;;;;;5096325;28;20206;-81
2023/09/04 03:09:17;;;;;;;6.60;1.77;;;20.50;99.90;;;;;;5095759;28;20228;-86
2023/09/04 03:11:48;;;;;;;3.85;1.17;;;20.60;99.90;;;;;;5096576;28;20271;-85
2023/09/04 03:14:19;;;;;;;3.78;1.20;;;20.70;99.90;;;;;;5095838;28;20276;-88
2023/09/04 03:16:49;;;;;;;4.85;1.20;;;20.60;99.90;;;;;;5095119;28;20651;-85
2023/09/04 03:19:20;;;;;;;2.00;1.17;;;20.60;99.90;;;;;;5088613;28;20633;-88
2023/09/04 03:21:51;;;;;;;4.30;1.30;;;20.80;99.90;;;;;;5096280;28;20279;-87
2023/09/04 03:24:24;;;;;;;1.92;1.08;;;20.80;99.90;;;;;;5089085;28;20215;-87
2023/09/04 03:26:55;;;;;;;2.88;1.42;;;20.70;99.90;;;;;;5095495;28;20203;-85
2023/09/04 03:29:25;;;;;;;6.32;1.30;;;20.90;99.90;;;;;;5095624;28;20191;-86
2023/09/04 03:31:56;;;;;;;6.43;1.40;;;20.90;99.90;;;;;;5095084;28;20195;-88
2023/09/04 03:34:27;;;;;;;6.35;1.30;;;20.80;99.90;;;;;;5089346;28;20651;-87
2023/09/04 03:36:58;;;;;;;4.13;1.50;;;20.80;99.90;;;;;;5094695;28;20549;-85
2023/09/04 03:39:30;;;;;;;4.38;1.10;;;20.80;99.90;;;;;;5091775;28;20227;-87
2023/09/04 03:42:01;;;;;;;4.25;1.30;;;20.50;99.90;;;;;;5095011;28;20662;-89
2023/09/04 03:44:32;;;;;;;3.45;1.30;;;20.50;99.90;;;;;;5095523;28;20236;-86
2023/09/04 03:47:03;;;;;;;4.18;1.25;;;20.60;99.90;;;;;;5095782;28;20188;-87
2023/09/04 03:49:34;;;;;;;5.28;1.30;;;20.60;99.90;;;;;;5094821;28;20190;-83
2023/09/04 03:52:04;;;;;;;8.57;1.55;;;20.50;99.90;;;;;;5095029;28;20239;-87
2023/09/04 03:54:37;;;;;;;5.15;1.40;;;20.50;99.90;;;;;;5095348;28;20188;-85
2023/09/04 03:57:08;;;;;;;3.78;1.35;;;20.50;99.90;;;;;;5095115;28;20646;-84
2023/09/04 03:59:39;;;;;;;6.07;1.70;;;20.40;99.90;;;;;;5095684;28;20732;-87
2023/09/04 04:02:09;;;;;;;4.45;1.30;;;20.40;99.90;;;;;;5091020;28;20192;-89
2023/09/04 04:04:40;;;;;;;4.82;1.40;;;20.40;99.90;;;;;;5093215;28;20675;-88
2023/09/04 04:07:11;;;;;;;5.15;1.42;;;20.50;99.90;;;;;;5093342;28;20196;-85
2023/09/04 04:09:44;;;;;;;3.15;1.10;;;20.50;99.90;;;;;;5095053;28;20188;-84
2023/09/04 04:12:15;;;;;;;6.35;2.05;;;20.30;99.90;;;;;;5092473;28;20196;-87
2023/09/04 04:14:46;;;;;;;6.85;1.58;;;20.30;99.90;;;;;;5091778;28;20203;-84
2023/09/04 04:17:17;;;;;;;8.30;1.80;;;20.20;99.90;;;;;;5095707;28;20214;-87
2023/09/04 04:19:49;;;;;;;3.67;1.40;;;20.20;99.90;;;;;;5091948;28;20218;-85
2023/09/04 04:22:20;;;;;;;6.20;1.17;;;20.30;99.90;;;;;;5095332;28;20192;-89
2023/09/04 04:24:53;;;;;;;5.97;1.35;;;20.40;99.90;;;;;;5094825;28;20222;-90
2023/09/04 04:27:24;;;;;;;3.10;1.52;;;20.50;99.90;;;;;;5094564;28;20238;-89
2023/09/04 04:29:55;;;;;;;5.50;1.38;;;20.50;99.90;;;;;;5093821;28;20204;-89
2023/09/04 04:32:25;;;;;;;4.28;1.40;;;20.50;99.90;;;;;;5094761;28;20184;-89
2023/09/04 04:34:56;;;;;;;5.60;1.20;;;20.40;99.90;;;;;;5074505;28;20197;-88
2023/09/04 04:37:27;;;;;;;6.25;1.70;;;20.40;99.90;;;;;;5084626;28;20248;-89
2023/09/04 04:40:00;;;;;;;4.53;1.65;;;20.40;99.90;;;;;;5093043;28;20194;-88
2023/09/04 04:42:30;;;;;;;3.70;1.60;;;20.50;99.90;;;;;;5093786;28;20197;-86
2023/09/04 04:45:02;;;;;;;6.30;1.98;;;20.50;99.90;;;;;;5091154;28;20204;-86
2023/09/04 04:47:33;;;;;;;4.13;1.40;;;20.50;99.90;;;;;;5094258;28;20195;-89
2023/09/04 04:50:03;;;;;;;7.60;1.65;;;20.50;99.90;;;;;;5074275;28;20193;-91
2023/09/04 04:52:34;;;;;;;6.47;1.50;;;20.40;99.90;;;;;;5074242;28;20237;-84
2023/09/04 04:55:07;;;;;;;3.78;1.58;;;20.40;99.90;;;;;;5085418;28;20227;-84
2023/09/04 04:57:38;;;;;;;3.90;1.40;;;20.40;99.90;;;;;;5092632;28;20220;-87
2023/09/04 05:00:11;;;;;;;5.07;1.60;;;20.20;99.90;;;;;;5085203;28;20665;-88
2023/09/04 05:02:45;;;;;;;7.70;1.60;;;20.20;99.90;;;;;;5093677;28;20632;-86
2023/09/04 05:05:16;;;;;;;5.18;1.58;;;20.10;99.90;;;;;;5093602;28;20212;-89
2023/09/04 05:07:46;;;;;;;5.68;1.55;;;20.10;99.90;;;;;;5093303;28;20196;-86
2023/09/04 05:10:19;;;;;;;3.85;1.23;;;20.10;99.90;;;;;;5073848;28;20267;-89
2023/09/04 05:12:50;;;;;;;5.47;1.30;;;20.10;99.90;;;;;;5082128;28;20665;-86
2023/09/04 05:15:21;;;;;;;5.07;1.38;;;20.10;99.90;;;;;;5087813;28;20525;-88
2023/09/04 05:17:52;;;;;;;4.72;1.55;;;20.10;99.90;;;;;;5092968;28;20275;-90
2023/09/04 05:20:23;;;;;;;6.32;1.60;;;20.10;99.90;;;;;;5076688;28;20196;-87
2023/09/04 05:22:54;;;;;;;6.05;1.50;;;20.10;99.90;;;;;;5093124;28;20188;-87
2023/09/04 05:25:26;;;;;;;8.20;1.50;;;20.10;99.90;;;;;;5093437;28;20216;-85
2023/09/04 05:27:57;;;;;;;7.45;1.85;;;20.10;99.90;;;;;;5086249;28;20192;-89
2023/09/04 05:30:28;;;;;;;8.05;1.50;;;20.00;99.90;;;;;;5089155;28;20207;-90
2023/09/04 05:32:58;;;;;;;7.03;1.50;;;20.10;99.90;;;;;;5092288;28;20192;-88
2023/09/04 05:35:29;;;;;;;6.00;1.50;;;20.00;99.90;;;;;;5088265;28;20188;-87
2023/09/04 05:38:00;;;;;;;3.78;1.35;;;20.00;99.90;;;;;;5092109;28;20220;-82
2023/09/04 05:40:33;;;;;;;7.65;1.67;;;20.00;99.90;;;;;;5075873;28;20191;-87
2023/09/04 05:43:03;;;;;;;5.93;1.50;;;20.00;99.90;;;;;;5093771;28;20185;-84
2023/09/04 05:45:34;;;;;;;4.57;1.50;;;19.90;99.90;;;;;;5094064;28;20303;-85
2023/09/04 05:48:06;;;;;;;7.28;1.83;;;19.90;99.90;;;;;;5092442;28;20243;-87
2023/09/04 05:50:37;;;;;;;4.68;1.60;;;19.90;99.90;;;;;;5085592;28;20188;-87
2023/09/04 05:53:08;;;;;;;3.55;1.60;;;19.90;99.90;;;;;;5092750;28;20238;-87
2023/09/04 05:55:42;;;;;;;8.90;1.55;;;19.90;99.90;;;;;;5073358;28;20271;-85
2023/09/04 05:58:14;;;;;;;5.47;1.35;;;19.90;99.90;;;;;;5074093;28;20193;-88
2023/09/04 06:00:45;;;;;;;3.97;1.73;;;19.90;99.90;;;;;;5090966;28;20196;-87
2023/09/04 06:03:16;;;;;;;5.30;1.75;;;19.80;99.90;;;;;;5091749;28;20574;-88
2023/09/04 06:05:48;;;;;;;7.05;1.55;;;19.80;99.90;;;;;;5073310;28;20216;-89
2023/09/04 06:08:19;;;;;;;6.05;1.52;;;19.80;99.90;;;;;;5073335;28;20188;-86
2023/09/04 06:10:52;;;;;;;5.82;1.80;;;19.60;99.90;;;;;;5090710;28;20624;-88
2023/09/04 06:13:23;;;;;;;9.50;1.83;;;19.60;99.90;;;;;;5093474;28;20261;-89
2023/09/04 06:15:54;;;;;;;6.32;1.50;;;19.50;99.90;;;;;;5093577;28;20199;-86
2023/09/04 06:18:28;;;;;;;3.10;1.20;;;19.40;99.90;;;;;;5092961;28;20189;-84
2023/09/04 06:20:59;;;;;;;4.03;1.40;;;19.50;99.90;;;;;;5088962;28;20192;-88
2023/09/04 06:23:29;;;;;;;9.25;1.75;;;19.50;99.90;;;;;;5092976;28;20708;-84
2023/09/04 06:26:04;;;;;;;8.45;1.50;;;19.40;99.90;;;;;;5089624;28;20216;-86
2023/09/04 06:28:35;;;;;;;7.88;1.50;;;19.30;99.90;;;;;;5093062;28;20203;-88
2023/09/04 06:31:06;;;;;;;6.80;1.30;;;19.10;99.90;;;;;;5073618;28;20717;-88
2023/09/04 06:33:37;;;;;;;5.15;1.30;;;19.10;99.90;;;;;;5072973;28;20196;-88
2023/09/04 06:36:08;;;;;;;7.72;1.70;;;18.90;99.90;;;;;;5072936;28;20197;-86
2023/09/04 06:38:39;;;;;;;4.25;1.17;;;18.90;99.90;;;;;;5087245;28;20216;-89
2023/09/04 06:41:12;;;;;;;6.20;1.30;;;18.90;99.90;;;;;;5092454;28;20189;-90
2023/09/04 06:43:42;;;;;;;7.30;1.30;;;18.90;99.90;;;;;;5072871;28;20193;-91
2023/09/04 06:46:13;;;;;;;4.13;1.20;;;18.80;99.90;;;;;;5084903;28;20219;-84
2023/09/04 06:48:44;;;;;;;10.05;1.67;;;18.80;99.90;;;;;;5092212;28;20214;-82
2023/09/04 06:51:15;;;;;;;7.57;1.60;;;18.80;99.90;;;;;;5072345;28;20240;-85
2023/09/04 06:53:46;;;;;;;6.55;1.33;;;18.80;99.90;;;;;;5072174;28;20211;-91
2023/09/04 06:56:19;;;;;;;5.25;1.75;;;18.70;99.90;;;;;;5104992;28;20269;-89
2023/09/04 06:58:50;;;;;;;8.88;1.40;;;18.70;99.90;;;;;;5095409;28;20200;-87
2023/09/04 07:01:21;;;;;;;6.05;1.40;;;18.70;99.90;;;;;;5092853;28;20219;-89
2023/09/04 07:03:52;;;;;;;6.25;1.30;;;18.60;99.90;;;;;;5092461;28;20195;-84
2023/09/04 07:06:23;;;;;;;5.90;1.38;;;18.60;99.90;;;;;;5092802;28;20216;-88
2023/09/04 07:08:53;;;;;;;6.43;1.48;;;18.50;99.90;;;;;;5093161;28;20616;-86
2023/09/04 07:11:26;;;;;;;6.07;1.27;;;18.50;99.90;;;;;;5092964;28;20199;-85
2023/09/04 07:13:57;;;;;;;4.60;1.58;;;18.40;99.90;;;;;;5095473;28;20188;-85
2023/09/04 07:16:27;;;;;;;10.35;1.70;;;18.30;99.90;;;;;;5096304;28;20540;-86
2023/09/04 07:18:58;;;;;;;7.10;1.70;;;18.30;99.90;;;;;;5095883;28;20188;-85
2023/09/04 07:21:29;;;;;;;6.43;1.55;;;18.30;99.90;;;;;;5095511;28;20188;-89
2023/09/04 07:24:03;;;;;;;7.28;1.38;;;18.20;99.90;;;;;;5097279;28;20184;-93
2023/09/04 07:26:36;;;;;;;9.13;1.58;;;18.20;99.90;;;;;;5097154;28;20231;-93
2023/09/04 07:29:07;;;;;;;7.28;1.50;;;18.20;99.90;;;;;;5097199;28;20283;-94
2023/09/04 07:31:37;;;;;;;7.75;1.90;;;18.10;99.90;;;;;;5096874;28;20307;-94
2023/09/04 07:34:09;;;;;;;6.30;1.38;;;18.10;99.90;;;;;;5097331;28;20191;-93
2023/09/04 07:36:39;;;;;;;12.10;1.60;;;18.00;99.90;;;;;;5096805;28;20592;-94
2023/09/04 07:39:10;;;;;;;8.32;1.70;;;18.10;99.90;;;;;;5098135;28;20188;-92
2023/09/04 07:41:43;;;;;;;6.05;1.65;;;18.00;99.90;;;;;;5096657;28;20248;-93
2023/09/04 07:44:13;;;;;;;11.35;1.90;;;18.00;99.90;;;;;;5096609;28;20195;-94
2023/09/04 07:46:44;;;;;;;8.40;1.50;;;17.90;99.90;;;;;;5095979;28;20224;-91
2023/09/04 07:49:15;;;;;;;11.77;1.90;;;17.90;99.90;;;;;;5089048;28;20204;-92
2023/09/04 07:51:46;;;;;;;7.00;1.48;;;17.80;99.90;;;;;;5096257;28;20236;-92
2023/09/04 07:54:16;;;;;;;8.82;1.70;;;17.80;99.90;;;;;;5096517;28;20192;-92
2023/09/04 07:56:49;;;;;;;6.72;1.48;;;17.80;99.90;;;;;;5093544;28;20196;-89
2023/09/04 07:59:20;;;;;;;6.85;1.30;;;17.80;99.90;;;;;;5077888;28;20201;-89
2023/09/04 08:01:51;;;;;;;8.13;1.50;;;17.80;99.90;;;;;;5079919;28;20204;-88
2023/09/04 08:04:21;;;;;;;12.23;1.90;;;17.80;99.90;;;;;;5093869;28;20198;-93
2023/09/04 08:06:52;;;;;;;7.60;1.58;;;17.80;99.90;;;;;;5078980;28;20232;-89
2023/09/04 08:09:23;;;;;;;8.55;2.25;;;17.70;99.90;;;;;;5086523;28;20213;-86
2023/09/04 08:11:55;;;;;;;7.10;1.50;;;17.70;99.90;;;;;;5095755;28;20694;-87
2023/09/04 08:14:26;;;;;;;7.57;1.70;;;17.70;99.90;;;;;;5095471;28;20207;-90
2023/09/04 08:16:57;;;;;;;7.40;1.55;;;17.70;99.90;;;;;;5095149;28;20206;-90
2023/09/04 08:19:28;;;;;;;9.50;1.70;;;17.70;99.90;;;;;;5095348;28;20196;-90
2023/09/04 08:22:00;;;;;;;9.50;1.98;;;17.70;99.90;;;;;;5095192;28;20648;-89
2023/09/04 08:24:31;;;;;;;9.73;1.92;;;17.70;99.90;;;;;;5095121;28;20200;-90
2023/09/04 08:27:03;;;;;;;6.03;1.80;;;17.60;99.90;;;;;;5089071;28;20734;-89
2023/09/04 08:29:34;;;;;;;10.57;1.85;;;17.70;99.90;;;;;;5095014;28;20196;-89
2023/09/04 08:32:05;;;;;;;9.68;1.98;;;17.70;99.90;;;;;;5095496;28;20200;-83
2023/09/04 08:34:36;;;;;;;12.27;2.30;;;17.70;99.90;;;;;;5077736;28;20192;-91
2023/09/04 08:37:07;;;;;;;12.05;1.73;;;17.70;99.90;;;;;;5095315;28;20318;-90
2023/09/04 08:39:38;;;;;;;7.30;2.17;;;17.70;99.90;;;;;;5094969;28;20593;-88
2023/09/04 08:42:11;;;;;;;14.57;2.20;;;17.70;99.90;;;;;;5086727;28;20192;-88
2023/09/04 08:44:44;;;;;;;8.27;2.00;;;17.70;99.90;;;;;;5095133;28;20198;-88
2023/09/04 08:47:16;;;;;;;11.38;1.98;;;17.70;99.90;;;;;;5094905;28;20312;-85
2023/09/04 08:49:47;;;;;;;8.85;1.63;;;17.60;99.90;;;;;;5094778;28;20200;-88
2023/09/04 08:52:18;;;;;;;9.32;2.30;;;17.60;99.90;;;;;;5094546;28;20242;-89
2023/09/04 08:54:50;;;;;;;9.20;2.42;;;17.60;99.90;;;;;;5094436;28;20196;-88
2023/09/04 08:57:23;;;;;;;11.82;2.20;;;17.60;99.90;;;;;;5094317;28;20222;-89
2023/09/04 08:59:54;;;;;;;10.38;2.80;;;17.60;99.90;;;;;;5094653;28;20200;-82
2023/09/04 09:02:25;;;;;;;10.45;3.45;;;17.60;99.90;;;;;;5094066;28;20195;-81
2023/09/04 09:04:57;;;;;;;12.32;3.03;;;17.60;99.90;;;;;;5094171;28;20188;-77
2023/09/04 09:07:29;;;;;;;10.23;2.67;;;17.60;99.90;;;;;;5094216;28;20683;-77
2023/09/04 09:10:04;;;;;;;11.20;2.15;;;17.60;99.90;;;;;;5094015;28;20238;-81
2023/09/04 09:12:37;;;;;;;12.88;2.70;;;17.60;99.90;;;;;;5094132;28;20192;-79
2023/09/04 09:15:08;;;;;;;11.13;2.40;;;17.70;99.90;;;;;;5093875;28;20210;-86
2023/09/04 09:17:53;;;;;;;17.15;2.30;;;17.70;99.90;;;;;;5093649;28;20202;-88
2023/09/04 09:20:38;;;;;;;13.52;2.60;;;17.70;99.90;;;;;;5093873;28;20235;-88
2023/09/04 09:23:09;;;;;;;13.23;2.75;;;17.70;99.90;;;;;;5093895;28;20196;-87
2023/09/04 09:25:40;;;;;;;10.05;2.08;;;17.70;99.90;;;;;;5093520;28;20288;-87
2023/09/04 09:28:14;;;;;;;14.63;2.42;;;17.70;99.90;;;;;;5094068;28;20200;-88
2023/09/04 09:30:44;;;;;;;10.82;2.30;;;17.70;99.90;;;;;;5093348;28;20200;-85
2023/09/04 09:33:16;;;;;;;11.00;2.40;;;17.70;99.90;;;;;;5093689;28;20231;-88
2023/09/04 09:35:47;;;;;;;7.97;2.42;;;17.70;99.90;;;;;;5092759;28;20715;-87
2023/09/04 09:38:18;;;;;;;9.82;2.17;;;17.60;99.90;;;;;;5085773;28;20714;-87
2023/09/04 09:40:49;;;;;;;15.23;3.05;;;17.60;99.90;;;;;;5093447;28;20192;-89
2023/09/04 09:43:22;;;;;;;10.80;2.10;;;17.60;99.90;;;;;;5093421;28;20200;-88
2023/09/04 09:45:54;;;;;;;10.10;2.40;;;17.50;99.90;;;;;;5093286;28;20910;-86
2023/09/04 09:48:26;;;;;;;14.60;3.55;;;17.50;99.90;;;;;;5089721;28;20192;-90
2023/09/04 09:50:57;;;;;;;15.23;3.47;;;17.50;99.90;;;;;;5093369;28;20315;-89
2023/09/04 09:53:47;;;;;;;11.75;3.03;;;17.40;99.90;;;;;;5093403;28;20196;-89
2023/09/04 09:56:20;;;;;;;10.70;2.55;;;17.40;99.90;;;;;;5093453;28;20199;-89
2023/09/04 09:58:53;;;;;;;13.10;2.80;;;17.40;99.90;;;;;;5093461;28;20196;-89
2023/09/04 10:01:24;;;;;;;10.10;2.15;;;17.40;99.90;;;;;;5093426;28;20200;-88
2023/09/04 10:03:56;;;;;;;11.85;2.50;;;17.40;99.90;;;;;;5093292;28;20683;-86
2023/09/04 10:06:34;;;;;;;13.50;2.20;;;17.40;99.90;;;;;;5093233;28;20223;-90
2023/09/04 10:09:09;;;;;;;12.93;2.60;;;17.40;99.90;;;;;;5093463;28;20250;-87
2023/09/04 10:11:43;;;;;;;15.45;2.90;;;17.40;99.90;;;;;;5093663;28;20200;-89
2023/09/04 10:14:23;;;;;;;10.45;2.47;;;17.40;99.90;;;;;;5092962;28;20195;-90
2023/09/04 10:16:58;;;;;;;18.67;3.00;;;17.40;99.90;;;;;;5093377;28;20539;-89
2023/09/04 10:19:33;;;;;;;16.33;2.88;;;17.30;99.90;;;;;;5093303;28;20232;-89
2023/09/04 10:22:07;;;;;;;16.20;2.38;;;17.40;99.90;;;;;;5093166;28;20203;-90
2023/09/04 10:24:47;;;;;;;15.68;2.50;;;17.30;99.90;;;;;;5093073;28;20233;-89
2023/09/04 10:27:19;;;;;;;16.92;2.63;;;17.30;99.90;;;;;;5092964;28;20220;-85
2023/09/04 10:29:56;;;;;;;14.27;2.60;;;17.40;99.90;;;;;;5092831;28;20203;-83
2023/09/04 10:32:29;;;;;;;13.13;2.63;;;17.40;99.90;;;;;;5092877;28;20686;-83
2023/09/04 10:35:01;;;;;;;9.75;2.35;;;17.30;99.90;;;;;;5093124;28;20652;-85
2023/09/04 10:37:33;;;;;;;11.65;2.72;;;17.30;99.90;;;;;;5093078;28;20310;-84
2023/09/04 10:40:05;;;;;;;15.80;2.97;;;17.30;99.90;;;;;;5092249;28;20188;-89
2023/09/04 10:42:37;;;;;;;13.38;2.95;;;17.40;99.90;;;;;;5085610;28;20224;-86
2023/09/04 10:45:20;;;;;;;16.70;2.72;;;17.30;99.90;;;;;;5081765;28;20204;-88
2023/09/04 10:47:52;;;;;;;14.68;2.92;;;17.40;99.90;;;;;;5097666;28;20219;-88
2023/09/04 10:50:34;;;;;;;12.45;2.67;;;17.30;99.90;;;;;;5097446;28;20280;-84
2023/09/04 10:53:06;;;;;;;14.75;2.58;;;17.30;99.90;;;;;;5097504;28;20188;-88
2023/09/04 10:55:38;;;;;;;19.45;3.25;;;17.30;99.90;;;;;;5097170;28;20261;-88
2023/09/04 10:58:10;;;;;;;13.95;2.38;;;17.40;99.90;;;;;;5097266;28;20196;-85
2023/09/04 11:00:44;;;;;;;10.98;2.38;;;17.40;99.90;;;;;;5097471;28;20554;-87
2023/09/04 11:03:20;;;;;;;14.75;2.72;;;17.30;99.90;;;;;;5097438;28;20655;-89
2023/09/04 11:06:20;;;;;;;14.70;3.10;;;17.30;99.90;;;;;;5097818;28;20190;-92
2023/09/04 11:08:54;;;;;;;11.35;2.42;;;17.30;99.90;;;;;;5097430;28;20184;-92
2023/09/04 11:11:28;;;;;;;10.18;2.60;;;17.20;99.90;;;;;;5097393;28;20192;-91
2023/09/04 11:14:03;;;;;;;15.65;3.90;;;17.20;99.90;;;;;;5097110;28;20279;-92
2023/09/04 11:16:40;;;;;;;13.57;3.55;;;17.20;99.90;;;;;;5097218;28;20282;-92
2023/09/04 11:19:16;;;;;;;19.48;4.75;;;17.20;99.90;;;;;;5097301;28;20188;-92
2023/09/04 11:21:48;;;;;;;10.63;3.83;;;17.10;99.90;;;;;;5097869;28;20241;-93
2023/09/04 11:24:22;;;;;;;11.35;4.25;;;17.10;99.90;;;;;;5079518;28;20252;-93
2023/09/04 11:26:54;;;;;;;13.00;4.47;;;17.00;99.90;;;;;;5076777;28;20213;-93
2023/09/04 11:29:25;;;;;;;10.73;3.90;;;16.90;99.90;;;;;;5082187;28;20210;-93
2023/09/04 11:31:58;;;;;;;11.18;3.03;;;16.90;99.90;;;;;;5096689;28;20198;-88
2023/09/04 11:34:29;;;;;;;12.52;3.83;;;16.90;99.90;;;;;;5096263;28;20200;-84
2023/09/04 11:37:00;;;;;;;12.93;4.00;;;16.90;99.90;;;;;;5096129;28;20231;-89
2023/09/04 11:39:30;;;;;;;12.02;3.28;;;16.80;99.90;;;;;;5095153;28;20188;-89
2023/09/04 11:42:03;;;;;;;11.73;3.40;;;16.80;99.90;;;;;;5095876;28;20188;-89
2023/09/04 11:44:35;;;;;;;9.15;3.20;;;16.80;99.90;;;;;;5096106;28;20185;-88
2023/09/04 11:47:08;;;;;;;12.68;3.95;;;16.80;99.90;;;;;;5095844;28;20307;-90
2023/09/04 11:49:39;;;;;;;14.48;3.70;;;16.80;99.90;;;;;;5095921;28;20192;-88
2023/09/04 11:52:13;;;;;;;16.23;3.95;;;16.80;99.90;;;;;;5095689;28;20240;-87
2023/09/04 11:54:44;;;;;;;15.55;4.07;;;16.70;99.90;;;;;;5095723;28;20196;-89
2023/09/04 11:57:16;;;;;;;16.92;4.18;;;16.70;99.90;;;;;;5095215;28;20199;-88
2023/09/04 11:59:47;;;;;;;13.63;4.20;;;16.70;99.90;;;;;;5095754;28;20200;-86
2023/09/04 12:02:20;;;;;;;12.25;3.47;;;16.70;99.90;;;;;;5095521;28;20195;-88
2023/09/04 12:04:52;;;;;;;10.77;3.03;;;16.60;99.90;;;;;;5095412;28;20258;-87
2023/09/04 12:07:23;;;;;;;12.70;3.40;;;16.60;99.90;;;;;;5095502;28;20216;-89
2023/09/04 12:09:53;;;;;;;15.82;4.32;;;16.50;99.90;;;;;;5095482;28;20195;-89
2023/09/04 12:12:24;;;;;;;14.95;3.97;;;16.60;99.90;;;;;;5095300;28;20663;-89
2023/09/04 12:14:55;;;;;;;12.68;3.53;;;16.50;99.90;;;;;;5095396;28;20188;-86
2023/09/04 12:17:32;;;;;;;12.90;3.58;;;16.50;99.90;;;;;;5095272;28;20188;-87
2023/09/04 12:20:08;;;;;;;17.92;3.65;;;16.50;99.90;;;;;;5095272;28;20211;-88
2023/09/04 12:22:38;;;;;;;14.02;3.40;;;16.40;99.90;;;;;;5095284;28;20184;-89
2023/09/04 12:25:11;;;;;;;11.70;3.33;;;16.40;99.90;;;;;;5094996;28;20189;-89
2023/09/04 12:27:42;;;;;;;10.05;3.15;;;16.40;99.90;;;;;;5095011;28;20216;-89
2023/09/04 12:30:14;;;;;;;13.30;3.20;;;16.30;99.90;;;;;;5094951;28;20189;-88
2023/09/04 12:32:48;;;;;;;10.02;2.85;;;16.30;99.90;;;;;;5094933;28;20192;-89
2023/09/04 12:35:21;;;;;;;8.85;2.70;;;16.30;99.90;;;;;;5094975;28;20200;-89
2023/09/04 12:37:54;;;;;;;13.60;3.33;;;16.30;99.90;;;;;;5094853;28;20224;-91
2023/09/04 12:40:25;;;;;;;10.95;2.83;;;16.20;99.90;;;;;;5094902;28;20184;-90
2023/09/04 12:42:56;;;;;;;10.75;2.80;;;16.20;99.90;;;;;;5089193;28;20589;-91
2023/09/04 12:45:26;;;;;;;10.65;2.95;;;16.20;99.90;;;;;;5095245;28;20199;-91
2023/09/04 12:48:02;;;;;;;11.38;3.03;;;16.10;99.90;;;;;;5095112;28;20584;-89
2023/09/04 12:50:33;;;;;;;10.20;2.78;;;16.10;99.90;;;;;;5094171;28;20187;-86
2023/09/04 12:53:04;;;;;;;7.75;2.65;;;16.10;99.90;;;;;;5095516;28;20226;-90
2023/09/04 12:55:34;;;;;;;10.40;3.22;;;16.10;99.90;;;;;;5094641;28;20652;-90
2023/09/04 12:58:11;;;;;;;11.73;3.15;;;16.00;99.90;;;;;;5094700;28;20636;-89
2023/09/04 13:00:43;;;;;;;10.40;3.20;;;16.00;99.90;;;;;;5094827;28;20188;-90
2023/09/04 13:03:15;;;;;;;11.10;2.88;;;16.00;99.90;;;;;;5093994;28;20192;-90
2023/09/04 13:05:46;;;;;;;11.57;2.63;;;16.00;99.90;;;;;;5094935;28;20192;-91
2023/09/04 13:08:17;;;;;;;11.55;3.55;;;15.90;99.90;;;;;;5094003;28;20220;-88